sensor_id;sensor_type;location;lat;lon;timestamp;pressure;altitude;pressure_sealevel;temperature;humidity
24230;BME280;12362;50.004;8.006;2022-08-27T00:00:45;100300.72;;;21.72;100.00
24230;BME280;12362;50.004;8.006;2022-08-27T00:03:13;100297.13;;;21.64;100.00
24230;BME280;12362;50.004;8.006;2022-08-27T00:05:42;100298.34;;;21.69;100.00
24230;BME280;12362;50.004;8.006;2022-08-27T00:08:10;100299.94;;;21.62;100.00
24230;BME280;12362;50.004;8.006;2022-08-27T00:10:37;100313.03;;;21.54;100.00
24230;BME280;12362;50.004;8.006;2022-08-27T00:13:06;100304.53;;;21.51;100.00
24230;BME280;12362;50.004;8.006;2022-08-27T00:15:33;100302.88;;;21.50;100.00
24230;BME280;12362;50.004;8.006;2022-08-27T00:18:02;100299.66;;;21.56;100.00
24230;BME280;12362;50.004;8.006;2022-08-27T00:20:29;100297.72;;;21.58;100.00
24230;BME280;12362;50.004;8.006;2022-08-27T00:22:56;100302.84;;;21.59;100.00
24230;BME280;12362;50.004;8.006;2022-08-27T00:25:22;100298.78;;;21.65;100.00
24230;BME280;12362;50.004;8.006;2022-08-27T00:27:52;100304.69;;;21.59;100.00
24230;BME280;12362;50.004;8.006;2022-08-27T00:30:20;100297.44;;;21.51;100.00
24230;BME280;12362;50.004;8.006;2022-08-27T00:32:48;100303.03;;;21.58;100.00
24230;BME280;12362;50.004;8.006;2022-08-27T00:35:15;100294.53;;;21.54;100.00
24230;BME280;12362;50.004;8.006;2022-08-27T00:37:42;100291.47;;;21.59;100.00
24230;BME280;12362;50.004;8.006;2022-08-27T00:40:12;100290.91;;;21.55;100.00
24230;BME280;12362;50.004;8.006;2022-08-27T00:42:39;100287.56;;;21.53;100.00
24230;BME280;12362;50.004;8.006;2022-08-27T00:45:10;100288.81;;;21.49;100.00
24230;BME280;12362;50.004;8.006;2022-08-27T00:47:41;100290.91;;;21.55;100.00
24230;BME280;12362;50.004;8.006;2022-08-27T00:50:13;100281.72;;;21.50;100.00
24230;BME280;12362;50.004;8.006;2022-08-27T00:52:51;100278.41;;;21.48;100.00
24230;BME280;12362;50.004;8.006;2022-08-27T00:55:29;100278.53;;;21.46;100.00
24230;BME280;12362;50.004;8.006;2022-08-27T00:58:08;100276.44;;;21.50;100.00
24230;BME280;12362;50.004;8.006;2022-08-27T01:00:35;100279.41;;;21.47;100.00
24230;BME280;12362;50.004;8.006;2022-08-27T01:03:02;100284.34;;;21.50;100.00
24230;BME280;12362;50.004;8.006;2022-08-27T01:05:31;100273.69;;;21.42;100.00
24230;BME280;12362;50.004;8.006;2022-08-27T01:08:06;100283.97;;;21.45;100.00
24230;BME280;12362;50.004;8.006;2022-08-27T01:10:32;100285.94;;;21.43;100.00
24230;BME280;12362;50.004;8.006;2022-08-27T01:13:02;100294.84;;;21.42;100.00
24230;BME280;12362;50.004;8.006;2022-08-27T01:15:28;100286.81;;;21.34;100.00
24230;BME280;12362;50.004;8.006;2022-08-27T01:17:57;100286.22;;;21.40;100.00
24230;BME280;12362;50.004;8.006;2022-08-27T01:20:31;100281.06;;;21.48;100.00
24230;BME280;12362;50.004;8.006;2022-08-27T01:23:23;100279.13;;;21.40;100.00
24230;BME280;12362;50.004;8.006;2022-08-27T01:25:54;100277.72;;;21.46;100.00
24230;BME280;12362;50.004;8.006;2022-08-27T01:28:21;100273.41;;;21.45;100.00
24230;BME280;12362;50.004;8.006;2022-08-27T01:30:50;100273.31;;;21.37;100.00
24230;BME280;12362;50.004;8.006;2022-08-27T01:33:19;100270.44;;;21.30;100.00
24230;BME280;12362;50.004;8.006;2022-08-27T01:35:50;100276.13;;;21.26;100.00
24230;BME280;12362;50.004;8.006;2022-08-27T01:38:18;100269.56;;;21.30;100.00
24230;BME280;12362;50.004;8.006;2022-08-27T01:40:44;100276.00;;;21.27;100.00
24230;BME280;12362;50.004;8.006;2022-08-27T01:43:10;100274.16;;;21.28;100.00
24230;BME280;12362;50.004;8.006;2022-08-27T01:45:44;100271.84;;;21.25;100.00
24230;BME280;12362;50.004;8.006;2022-08-27T01:48:11;100271.09;;;21.32;100.00
24230;BME280;12362;50.004;8.006;2022-08-27T01:50:40;100265.56;;;21.26;100.00
24230;BME280;12362;50.004;8.006;2022-08-27T01:53:10;100267.81;;;21.21;100.00
24230;BME280;12362;50.004;8.006;2022-08-27T01:55:37;100258.91;;;21.22;100.00
24230;BME280;12362;50.004;8.006;2022-08-27T01:58:03;100261.41;;;21.23;100.00
24230;BME280;12362;50.004;8.006;2022-08-27T02:00:36;100265.00;;;21.22;100.00
24230;BME280;12362;50.004;8.006;2022-08-27T02:03:05;100252.25;;;21.18;100.00
24230;BME280;12362;50.004;8.006;2022-08-27T02:05:33;100253.75;;;21.20;100.00
24230;BME280;12362;50.004;8.006;2022-08-27T02:08:01;100256.84;;;21.16;100.00
24230;BME280;12362;50.004;8.006;2022-08-27T02:10:30;100256.56;;;21.19;100.00
24230;BME280;12362;50.004;8.006;2022-08-27T02:12:58;100260.88;;;21.20;100.00
24230;BME280;12362;50.004;8.006;2022-08-27T02:15:25;100250.72;;;21.15;100.00
24230;BME280;12362;50.004;8.006;2022-08-27T02:17:52;100246.16;;;21.08;100.00
24230;BME280;12362;50.004;8.006;2022-08-27T02:20:19;100257.56;;;21.08;100.00
24230;BME280;12362;50.004;8.006;2022-08-27T02:22:48;100256.31;;;21.03;100.00
24230;BME280;12362;50.004;8.006;2022-08-27T02:25:17;100271.50;;;21.01;100.00
24230;BME280;12362;50.004;8.006;2022-08-27T02:27:50;100272.22;;;20.94;100.00
24230;BME280;12362;50.004;8.006;2022-08-27T02:30:20;100276.25;;;20.88;100.00
24230;BME280;12362;50.004;8.006;2022-08-27T02:32:47;100275.66;;;20.94;100.00
24230;BME280;12362;50.004;8.006;2022-08-27T02:35:16;100284.97;;;20.98;100.00
24230;BME280;12362;50.004;8.006;2022-08-27T02:37:44;100281.94;;;20.93;100.00
24230;BME280;12362;50.004;8.006;2022-08-27T02:40:14;100283.75;;;20.93;100.00
24230;BME280;12362;50.004;8.006;2022-08-27T02:42:42;100283.03;;;21.00;100.00
24230;BME280;12362;50.004;8.006;2022-08-27T02:45:08;100280.53;;;20.99;100.00
24230;BME280;12362;50.004;8.006;2022-08-27T02:47:34;100290.81;;;21.02;100.00
24230;BME280;12362;50.004;8.006;2022-08-27T02:50:03;100289.41;;;20.98;100.00
24230;BME280;12362;50.004;8.006;2022-08-27T02:52:33;100282.06;;;20.92;100.00
24230;BME280;12362;50.004;8.006;2022-08-27T02:54:59;100285.09;;;20.97;100.00
24230;BME280;12362;50.004;8.006;2022-08-27T02:57:26;100288.00;;;21.03;100.00
24230;BME280;12362;50.004;8.006;2022-08-27T02:59:54;100280.06;;;21.12;100.00
24230;BME280;12362;50.004;8.006;2022-08-27T03:02:21;100288.84;;;21.13;100.00
24230;BME280;12362;50.004;8.006;2022-08-27T03:04:49;100277.75;;;21.00;100.00
24230;BME280;12362;50.004;8.006;2022-08-27T03:07:16;100275.50;;;21.05;100.00
24230;BME280;12362;50.004;8.006;2022-08-27T03:09:43;100276.47;;;21.04;100.00
24230;BME280;12362;50.004;8.006;2022-08-27T03:12:10;100272.84;;;21.14;100.00
24230;BME280;12362;50.004;8.006;2022-08-27T03:14:38;100275.31;;;21.16;100.00
24230;BME280;12362;50.004;8.006;2022-08-27T03:17:07;100288.97;;;21.11;100.00
24230;BME280;12362;50.004;8.006;2022-08-27T03:19:54;100278.81;;;21.16;100.00
24230;BME280;12362;50.004;8.006;2022-08-27T03:22:21;100279.69;;;21.08;100.00
24230;BME280;12362;50.004;8.006;2022-08-27T03:24:50;100284.13;;;21.07;100.00
24230;BME280;12362;50.004;8.006;2022-08-27T03:27:15;100284.13;;;21.07;100.00
24230;BME280;12362;50.004;8.006;2022-08-27T03:29:43;100281.03;;;21.11;100.00
24230;BME280;12362;50.004;8.006;2022-08-27T03:32:12;100283.84;;;21.10;100.00
24230;BME280;12362;50.004;8.006;2022-08-27T03:34:40;100285.88;;;21.16;100.00
24230;BME280;12362;50.004;8.006;2022-08-27T03:37:10;100289.81;;;21.12;100.00
24230;BME280;12362;50.004;8.006;2022-08-27T03:39:38;100287.59;;;21.08;100.00
24230;BME280;12362;50.004;8.006;2022-08-27T03:42:06;100287.72;;;21.06;100.00
24230;BME280;12362;50.004;8.006;2022-08-27T03:44:36;100284.41;;;21.04;100.00
24230;BME280;12362;50.004;8.006;2022-08-27T03:47:02;100288.84;;;21.04;100.00
24230;BME280;12362;50.004;8.006;2022-08-27T03:49:29;100282.19;;;21.00;100.00
24230;BME280;12362;50.004;8.006;2022-08-27T03:51:58;100277.16;;;21.06;100.00
24230;BME280;12362;50.004;8.006;2022-08-27T03:54:25;100280.09;;;21.03;100.00
24230;BME280;12362;50.004;8.006;2022-08-27T03:56:54;100276.38;;;20.96;100.00
24230;BME280;12362;50.004;8.006;2022-08-27T03:59:23;100277.50;;;20.94;100.00
24230;BME280;12362;50.004;8.006;2022-08-27T04:01:51;100273.34;;;20.82;100.00
24230;BME280;12362;50.004;8.006;2022-08-27T04:04:18;100276.69;;;20.84;100.00
24230;BME280;12362;50.004;8.006;2022-08-27T04:06:45;100280.25;;;20.92;100.00
24230;BME280;12362;50.004;8.006;2022-08-27T04:09:12;100269.03;;;20.90;100.00
24230;BME280;12362;50.004;8.006;2022-08-27T04:11:42;100275.41;;;20.97;100.00
24230;BME280;12362;50.004;8.006;2022-08-27T04:14:10;100277.78;;;20.91;100.00
24230;BME280;12362;50.004;8.006;2022-08-27T04:16:39;100281.38;;;20.90;100.00
24230;BME280;12362;50.004;8.006;2022-08-27T04:19:06;100281.53;;;20.88;100.00
24230;BME280;12362;50.004;8.006;2022-08-27T04:21:34;100286.22;;;20.94;100.00
24230;BME280;12362;50.004;8.006;2022-08-27T04:24:02;100277.06;;;20.89;100.00
24230;BME280;12362;50.004;8.006;2022-08-27T04:26:30;100295.28;;;20.92;100.00
24230;BME280;12362;50.004;8.006;2022-08-27T04:28:56;100292.78;;;20.90;100.00
24230;BME280;12362;50.004;8.006;2022-08-27T04:31:23;100280.97;;;20.85;100.00
24230;BME280;12362;50.004;8.006;2022-08-27T04:33:50;100294.84;;;20.87;100.00
24230;BME280;12362;50.004;8.006;2022-08-27T04:36:19;100293.19;;;20.95;100.00
24230;BME280;12362;50.004;8.006;2022-08-27T04:38:47;100298.19;;;20.89;100.00
24230;BME280;12362;50.004;8.006;2022-08-27T04:41:15;100297.94;;;20.82;100.00
24230;BME280;12362;50.004;8.006;2022-08-27T04:43:56;100301.69;;;20.80;100.00
24230;BME280;12362;50.004;8.006;2022-08-27T04:46:25;100294.16;;;20.85;100.00
24230;BME280;12362;50.004;8.006;2022-08-27T04:48:55;100301.13;;;20.86;100.00
24230;BME280;12362;50.004;8.006;2022-08-27T04:51:25;100303.03;;;20.93;100.00
24230;BME280;12362;50.004;8.006;2022-08-27T04:53:52;100297.06;;;20.91;100.00
24230;BME280;12362;50.004;8.006;2022-08-27T04:56:19;100303.91;;;20.94;100.00
24230;BME280;12362;50.004;8.006;2022-08-27T04:58:51;100297.91;;;20.92;100.00
24230;BME280;12362;50.004;8.006;2022-08-27T05:01:25;100301.25;;;20.94;100.00
24230;BME280;12362;50.004;8.006;2022-08-27T05:03:52;100299.31;;;20.86;100.00
24230;BME280;12362;50.004;8.006;2022-08-27T05:06:24;100301.94;;;20.96;100.00
24230;BME280;12362;50.004;8.006;2022-08-27T05:08:51;100298.56;;;21.03;100.00
24230;BME280;12362;50.004;8.006;2022-08-27T05:11:21;100318.47;;;20.98;100.00
24230;BME280;12362;50.004;8.006;2022-08-27T05:13:48;100304.97;;;21.01;100.00
24230;BME280;12362;50.004;8.006;2022-08-27T05:16:20;100311.13;;;21.01;100.00
24230;BME280;12362;50.004;8.006;2022-08-27T05:18:48;100300.94;;;21.06;100.00
24230;BME280;12362;50.004;8.006;2022-08-27T05:21:17;100306.38;;;21.05;100.00
24230;BME280;12362;50.004;8.006;2022-08-27T05:23:43;100302.88;;;21.04;100.00
24230;BME280;12362;50.004;8.006;2022-08-27T05:26:10;100303.84;;;21.03;100.00
24230;BME280;12362;50.004;8.006;2022-08-27T05:28:36;100297.16;;;21.08;100.00
24230;BME280;12362;50.004;8.006;2022-08-27T05:31:04;100294.84;;;21.06;100.00
24230;BME280;12362;50.004;8.006;2022-08-27T05:33:31;100295.47;;;21.17;100.00
24230;BME280;12362;50.004;8.006;2022-08-27T05:35:59;100299.25;;;21.14;100.00
24230;BME280;12362;50.004;8.006;2022-08-27T05:38:28;100298.66;;;21.20;100.00
24230;BME280;12362;50.004;8.006;2022-08-27T05:41:07;100291.25;;;21.33;100.00
24230;BME280;12362;50.004;8.006;2022-08-27T05:43:40;100291.81;;;21.37;100.00
24230;BME280;12362;50.004;8.006;2022-08-27T05:46:09;100284.69;;;21.47;100.00
24230;BME280;12362;50.004;8.006;2022-08-27T05:48:40;100286.88;;;21.61;100.00
24230;BME280;12362;50.004;8.006;2022-08-27T05:53:40;100296.03;;;21.66;100.00
24230;BME280;12362;50.004;8.006;2022-08-27T05:56:17;100296.47;;;21.79;100.00
24230;BME280;12362;50.004;8.006;2022-08-27T05:58:44;100296.31;;;21.90;100.00
24230;BME280;12362;50.004;8.006;2022-08-27T06:01:33;100313.63;;;22.02;100.00
24230;BME280;12362;50.004;8.006;2022-08-27T06:03:59;100301.59;;;21.90;100.00
24230;BME280;12362;50.004;8.006;2022-08-27T06:06:35;100287.75;;;21.96;100.00
24230;BME280;12362;50.004;8.006;2022-08-27T06:09:02;100295.53;;;21.98;100.00
24230;BME280;12362;50.004;8.006;2022-08-27T06:11:31;100290.13;;;21.99;100.00
24230;BME280;12362;50.004;8.006;2022-08-27T06:13:56;100288.06;;;22.10;100.00
24230;BME280;12362;50.004;8.006;2022-08-27T06:16:24;100288.31;;;22.17;100.00
24230;BME280;12362;50.004;8.006;2022-08-27T06:18:49;100281.56;;;22.05;100.00
24230;BME280;12362;50.004;8.006;2022-08-27T06:21:17;100291.34;;;22.22;100.00
24230;BME280;12362;50.004;8.006;2022-08-27T06:23:45;100294.50;;;22.35;100.00
24230;BME280;12362;50.004;8.006;2022-08-27T06:26:17;100288.97;;;22.46;100.00
24230;BME280;12362;50.004;8.006;2022-08-27T06:28:44;100290.63;;;22.47;100.00
24230;BME280;12362;50.004;8.006;2022-08-27T06:31:16;100298.19;;;22.42;100.00
24230;BME280;12362;50.004;8.006;2022-08-27T06:33:44;100299.53;;;22.28;100.00
24230;BME280;12362;50.004;8.006;2022-08-27T06:36:20;100294.78;;;22.49;100.00
24230;BME280;12362;50.004;8.006;2022-08-27T06:38:46;100294.84;;;22.40;100.00
24230;BME280;12362;50.004;8.006;2022-08-27T06:41:14;100298.53;;;22.29;100.00
24230;BME280;12362;50.004;8.006;2022-08-27T06:43:42;100305.78;;;22.27;100.00
24230;BME280;12362;50.004;8.006;2022-08-27T06:46:11;100301.81;;;22.41;100.00
24230;BME280;12362;50.004;8.006;2022-08-27T06:48:37;100293.16;;;22.56;100.00
24230;BME280;12362;50.004;8.006;2022-08-27T06:51:08;100301.34;;;22.63;100.00
24230;BME280;12362;50.004;8.006;2022-08-27T06:53:35;100298.56;;;22.47;100.00
24230;BME280;12362;50.004;8.006;2022-08-27T06:56:04;100295.69;;;22.58;100.00
24230;BME280;12362;50.004;8.006;2022-08-27T06:58:31;100298.66;;;22.80;100.00
24230;BME280;12362;50.004;8.006;2022-08-27T07:01:05;100303.00;;;22.46;100.00
24230;BME280;12362;50.004;8.006;2022-08-27T07:03:37;100306.75;;;22.09;100.00
24230;BME280;12362;50.004;8.006;2022-08-27T07:06:04;100312.97;;;22.17;100.00
24230;BME280;12362;50.004;8.006;2022-08-27T07:08:32;100313.16;;;22.33;100.00
24230;BME280;12362;50.004;8.006;2022-08-27T07:11:01;100317.91;;;22.47;100.00
24230;BME280;12362;50.004;8.006;2022-08-27T07:13:34;100320.09;;;22.69;100.00
24230;BME280;12362;50.004;8.006;2022-08-27T07:16:04;100323.06;;;22.66;100.00
24230;BME280;12362;50.004;8.006;2022-08-27T07:18:33;100330.63;;;22.61;100.00
24230;BME280;12362;50.004;8.006;2022-08-27T07:20:59;100323.41;;;22.71;100.00
24230;BME280;12362;50.004;8.006;2022-08-27T07:23:25;100328.50;;;22.65;100.00
24230;BME280;12362;50.004;8.006;2022-08-27T07:25:51;100327.59;;;22.74;100.00
24230;BME280;12362;50.004;8.006;2022-08-27T07:28:20;100330.59;;;22.79;100.00
24230;BME280;12362;50.004;8.006;2022-08-27T07:30:47;100332.00;;;22.65;100.00
24230;BME280;12362;50.004;8.006;2022-08-27T07:33:12;100333.44;;;22.42;100.00
24230;BME280;12362;50.004;8.006;2022-08-27T07:35:38;100344.63;;;22.54;100.00
24230;BME280;12362;50.004;8.006;2022-08-27T07:38:09;100349.00;;;22.63;100.00
24230;BME280;12362;50.004;8.006;2022-08-27T07:40:37;100352.78;;;22.78;100.00
24230;BME280;12362;50.004;8.006;2022-08-27T07:43:07;100359.44;;;22.64;100.00
24230;BME280;12362;50.004;8.006;2022-08-27T07:45:51;100360.50;;;22.71;100.00
24230;BME280;12362;50.004;8.006;2022-08-27T07:48:24;100372.75;;;22.55;100.00
24230;BME280;12362;50.004;8.006;2022-08-27T07:50:51;100365.72;;;22.46;100.00
24230;BME280;12362;50.004;8.006;2022-08-27T07:53:19;100364.81;;;22.55;100.00
24230;BME280;12362;50.004;8.006;2022-08-27T07:55:46;100367.97;;;22.58;100.00
24230;BME280;12362;50.004;8.006;2022-08-27T07:58:14;100374.69;;;22.35;100.00
24230;BME280;12362;50.004;8.006;2022-08-27T08:00:43;100365.78;;;22.54;100.00
24230;BME280;12362;50.004;8.006;2022-08-27T08:03:10;100374.59;;;22.72;100.00
24230;BME280;12362;50.004;8.006;2022-08-27T08:05:43;100369.56;;;22.86;100.00
24230;BME280;12362;50.004;8.006;2022-08-27T08:08:14;100369.97;;;22.74;100.00
24230;BME280;12362;50.004;8.006;2022-08-27T08:10:41;100374.34;;;22.83;100.00
24230;BME280;12362;50.004;8.006;2022-08-27T08:13:09;100373.13;;;22.94;100.00
24230;BME280;12362;50.004;8.006;2022-08-27T08:15:36;100366.84;;;23.13;100.00
24230;BME280;12362;50.004;8.006;2022-08-27T08:18:02;100377.38;;;23.05;100.00
24230;BME280;12362;50.004;8.006;2022-08-27T08:20:30;100380.75;;;22.80;100.00
24230;BME280;12362;50.004;8.006;2022-08-27T08:22:57;100385.94;;;22.82;100.00
24230;BME280;12362;50.004;8.006;2022-08-27T08:25:23;100381.38;;;22.92;100.00
24230;BME280;12362;50.004;8.006;2022-08-27T08:27:51;100389.31;;;22.92;100.00
24230;BME280;12362;50.004;8.006;2022-08-27T08:30:16;100390.38;;;22.81;100.00
24230;BME280;12362;50.004;8.006;2022-08-27T08:32:43;100383.13;;;22.83;100.00
24230;BME280;12362;50.004;8.006;2022-08-27T08:35:11;100395.06;;;22.52;100.00
24230;BME280;12362;50.004;8.006;2022-08-27T08:37:37;100391.34;;;22.63;100.00
24230;BME280;12362;50.004;8.006;2022-08-27T08:40:04;100396.22;;;22.67;100.00
24230;BME280;12362;50.004;8.006;2022-08-27T08:42:36;100393.72;;;22.83;100.00
24230;BME280;12362;50.004;8.006;2022-08-27T08:45:05;100387.72;;;22.98;100.00
24230;BME280;12362;50.004;8.006;2022-08-27T08:47:45;100387.59;;;23.17;100.00
24230;BME280;12362;50.004;8.006;2022-08-27T08:50:19;100395.03;;;23.39;100.00
24230;BME280;12362;50.004;8.006;2022-08-27T08:53:08;100384.25;;;23.66;100.00
24230;BME280;12362;50.004;8.006;2022-08-27T08:55:44;100384.16;;;23.76;100.00
24230;BME280;12362;50.004;8.006;2022-08-27T09:01:08;100380.00;;;23.48;100.00
24230;BME280;12362;50.004;8.006;2022-08-27T09:03:37;100382.44;;;23.92;100.00
24230;BME280;12362;50.004;8.006;2022-08-27T09:06:13;100379.22;;;24.22;100.00
24230;BME280;12362;50.004;8.006;2022-08-27T09:08:41;100379.94;;;23.98;100.00
24230;BME280;12362;50.004;8.006;2022-08-27T09:13:54;100381.88;;;24.22;100.00
24230;BME280;12362;50.004;8.006;2022-08-27T09:16:22;100383.03;;;24.19;100.00
24230;BME280;12362;50.004;8.006;2022-08-27T09:18:50;100381.50;;;24.09;100.00
24230;BME280;12362;50.004;8.006;2022-08-27T09:21:30;100391.38;;;23.66;100.00
24230;BME280;12362;50.004;8.006;2022-08-27T09:26:43;100393.06;;;24.00;100.00
24230;BME280;12362;50.004;8.006;2022-08-27T09:29:15;100394.66;;;24.26;100.00
24230;BME280;12362;50.004;8.006;2022-08-27T09:31:59;100401.22;;;23.48;100.00
24230;BME280;12362;50.004;8.006;2022-08-27T09:34:34;100405.47;;;23.41;100.00
24230;BME280;12362;50.004;8.006;2022-08-27T09:40:06;100392.41;;;23.98;100.00
24230;BME280;12362;50.004;8.006;2022-08-27T09:42:40;100386.25;;;23.72;100.00
24230;BME280;12362;50.004;8.006;2022-08-27T09:45:22;100399.78;;;23.87;100.00
24230;BME280;12362;50.004;8.006;2022-08-27T09:47:54;100398.97;;;23.61;100.00
24230;BME280;12362;50.004;8.006;2022-08-27T09:50:30;100405.78;;;23.88;100.00
24230;BME280;12362;50.004;8.006;2022-08-27T09:52:59;100396.81;;;23.56;100.00
24230;BME280;12362;50.004;8.006;2022-08-27T09:55:28;100406.25;;;23.59;100.00
24230;BME280;12362;50.004;8.006;2022-08-27T09:57:55;100399.75;;;23.79;100.00
24230;BME280;12362;50.004;8.006;2022-08-27T10:00:35;100395.13;;;23.55;100.00
24230;BME280;12362;50.004;8.006;2022-08-27T10:03:05;100391.84;;;23.87;100.00
24230;BME280;12362;50.004;8.006;2022-08-27T10:05:47;100391.22;;;23.92;100.00
24230;BME280;12362;50.004;8.006;2022-08-27T10:08:40;100393.84;;;23.85;100.00
24230;BME280;12362;50.004;8.006;2022-08-27T10:11:31;100396.72;;;23.48;100.00
24230;BME280;12362;50.004;8.006;2022-08-27T10:14:15;100399.81;;;23.36;100.00
24230;BME280;12362;50.004;8.006;2022-08-27T10:19:59;100393.78;;;23.51;100.00
24230;BME280;12362;50.004;8.006;2022-08-27T10:22:31;100398.31;;;23.59;100.00
24230;BME280;12362;50.004;8.006;2022-08-27T10:30:20;100397.94;;;23.28;100.00
24230;BME280;12362;50.004;8.006;2022-08-27T10:38:28;100387.00;;;24.15;100.00
24230;BME280;12362;50.004;8.006;2022-08-27T10:41:24;100387.47;;;24.11;100.00
24230;BME280;12362;50.004;8.006;2022-08-27T10:47:09;100390.31;;;24.09;100.00
24230;BME280;12362;50.004;8.006;2022-08-27T10:52:37;100387.50;;;24.19;100.00
24230;BME280;12362;50.004;8.006;2022-08-27T10:55:21;100382.34;;;24.67;100.00
24230;BME280;12362;50.004;8.006;2022-08-27T11:03:36;100374.72;;;24.72;100.00
24230;BME280;12362;50.004;8.006;2022-08-27T11:08:56;100374.22;;;24.19;100.00
24230;BME280;12362;50.004;8.006;2022-08-27T11:11:39;100383.28;;;24.00;100.00
24230;BME280;12362;50.004;8.006;2022-08-27T11:16:55;100365.41;;;24.68;100.00
24230;BME280;12362;50.004;8.006;2022-08-27T11:19:46;100355.94;;;24.97;100.00
24230;BME280;12362;50.004;8.006;2022-08-27T11:22:23;100352.28;;;25.38;100.00
24230;BME280;12362;50.004;8.006;2022-08-27T11:27:50;100347.69;;;25.78;100.00
24230;BME280;12362;50.004;8.006;2022-08-27T11:38:43;100349.31;;;25.01;100.00
24230;BME280;12362;50.004;8.006;2022-08-27T11:41:26;100339.84;;;24.90;100.00
24230;BME280;12362;50.004;8.006;2022-08-27T11:43:53;100342.63;;;25.05;100.00
24230;BME280;12362;50.004;8.006;2022-08-27T11:46:23;100354.44;;;25.26;100.00
24230;BME280;12362;50.004;8.006;2022-08-27T11:48:58;100345.63;;;25.10;100.00
24230;BME280;12362;50.004;8.006;2022-08-27T11:51:29;100355.13;;;25.28;100.00
24230;BME280;12362;50.004;8.006;2022-08-27T11:54:04;100361.59;;;25.18;100.00
24230;BME280;12362;50.004;8.006;2022-08-27T11:56:40;100347.31;;;25.19;100.00
24230;BME280;12362;50.004;8.006;2022-08-27T11:59:43;100352.78;;;25.25;100.00
24230;BME280;12362;50.004;8.006;2022-08-27T12:02:27;100351.56;;;25.60;100.00
24230;BME280;12362;50.004;8.006;2022-08-27T12:05:09;100351.13;;;25.24;100.00
24230;BME280;12362;50.004;8.006;2022-08-27T12:07:49;100359.22;;;25.63;100.00
24230;BME280;12362;50.004;8.006;2022-08-27T12:10:38;100336.66;;;26.94;100.00
24230;BME280;12362;50.004;8.006;2022-08-27T12:16:27;100318.03;;;29.62;85.63
24230;BME280;12362;50.004;8.006;2022-08-27T12:30:03;100321.28;;;29.24;85.35
24230;BME280;12362;50.004;8.006;2022-08-27T12:35:09;100318.44;;;29.05;84.73
24230;BME280;12362;50.004;8.006;2022-08-27T12:37:52;100320.53;;;28.67;88.27
24230;BME280;12362;50.004;8.006;2022-08-27T12:40:30;100318.31;;;28.50;87.00
24230;BME280;12362;50.004;8.006;2022-08-27T12:43:10;100329.72;;;27.73;92.35
24230;BME280;12362;50.004;8.006;2022-08-27T12:45:46;100334.66;;;26.96;100.00
24230;BME280;12362;50.004;8.006;2022-08-27T12:48:16;100332.78;;;26.82;100.00
24230;BME280;12362;50.004;8.006;2022-08-27T12:50:50;100330.72;;;26.70;100.00
24230;BME280;12362;50.004;8.006;2022-08-27T12:53:29;100332.34;;;27.16;100.00
24230;BME280;12362;50.004;8.006;2022-08-27T13:04:40;100312.03;;;27.29;95.88
24230;BME280;12362;50.004;8.006;2022-08-27T13:07:08;100317.66;;;26.30;100.00
24230;BME280;12362;50.004;8.006;2022-08-27T13:09:36;100326.03;;;25.89;100.00
24230;BME280;12362;50.004;8.006;2022-08-27T13:12:10;100337.41;;;25.67;100.00
24230;BME280;12362;50.004;8.006;2022-08-27T13:14:40;100324.91;;;26.36;100.00
24230;BME280;12362;50.004;8.006;2022-08-27T13:17:19;100321.53;;;27.46;98.78
24230;BME280;12362;50.004;8.006;2022-08-27T13:20:02;100314.44;;;28.32;91.68
24230;BME280;12362;50.004;8.006;2022-08-27T13:22:36;100324.03;;;27.76;94.37
24230;BME280;12362;50.004;8.006;2022-08-27T13:25:28;100339.69;;;27.14;100.00
24230;BME280;12362;50.004;8.006;2022-08-27T13:28:00;100338.22;;;26.14;100.00
24230;BME280;12362;50.004;8.006;2022-08-27T13:30:35;100338.06;;;25.77;100.00
24230;BME280;12362;50.004;8.006;2022-08-27T13:33:04;100333.69;;;25.76;100.00
24230;BME280;12362;50.004;8.006;2022-08-27T13:35:30;100337.09;;;26.08;100.00
24230;BME280;12362;50.004;8.006;2022-08-27T13:37:57;100338.69;;;25.25;100.00
24230;BME280;12362;50.004;8.006;2022-08-27T13:40:30;100343.28;;;25.47;100.00
24230;BME280;12362;50.004;8.006;2022-08-27T13:43:11;100333.00;;;25.90;100.00
24230;BME280;12362;50.004;8.006;2022-08-27T13:45:38;100338.88;;;25.70;100.00
24230;BME280;12362;50.004;8.006;2022-08-27T13:48:05;100330.44;;;25.58;100.00
24230;BME280;12362;50.004;8.006;2022-08-27T13:50:33;100332.03;;;25.83;100.00
24230;BME280;12362;50.004;8.006;2022-08-27T13:53:07;100332.31;;;25.96;100.00
24230;BME280;12362;50.004;8.006;2022-08-27T13:55:53;100324.69;;;25.93;100.00
24230;BME280;12362;50.004;8.006;2022-08-27T13:58:31;100331.50;;;25.41;100.00
24230;BME280;12362;50.004;8.006;2022-08-27T14:01:13;100329.19;;;25.06;100.00
24230;BME280;12362;50.004;8.006;2022-08-27T14:03:48;100334.53;;;24.83;100.00
24230;BME280;12362;50.004;8.006;2022-08-27T14:06:28;100337.66;;;24.70;100.00
24230;BME280;12362;50.004;8.006;2022-08-27T14:08:56;100322.91;;;25.15;100.00
24230;BME280;12362;50.004;8.006;2022-08-27T14:11:25;100321.06;;;25.24;100.00
24230;BME280;12362;50.004;8.006;2022-08-27T14:13:54;100321.97;;;25.63;100.00
24230;BME280;12362;50.004;8.006;2022-08-27T14:16:26;100317.53;;;25.93;100.00
24230;BME280;12362;50.004;8.006;2022-08-27T14:19:23;100322.84;;;26.24;100.00
24230;BME280;12362;50.004;8.006;2022-08-27T14:21:49;100321.78;;;26.10;100.00